Time;durP1;ratioP1;P1;durP2;ratioP2;P2;SDS_P1;SDS_P2;PMS_P1;PMS_P2;Temp;Humidity;BMP_temperature;BMP_pressure;BME280_temperature;BME280_humidity;BME280_pressure;Samples;Min_cycle;Max_cycle;Signal;HPM_P1;HPM_P2
2022/09/22 00:01:41;;;;;;;;;;;13.50;73.60;;;-151.14;100.00;62537.16;4259072;33;19902;-85
2022/09/22 00:04:11;;;;;;;;;;;13.50;73.60;;;-151.14;100.00;62537.16;4311719;33;19909;-85
2022/09/22 00:06:42;;;;;;;;;;;13.50;73.60;;;12.61;100.00;62537.16;4263769;33;20240;-85
2022/09/22 00:09:13;;;;;;;;;;;13.50;73.60;;;-151.14;100.00;62537.16;4287346;33;20012;-85
2022/09/22 00:11:43;;;;;;;;;;;13.50;73.70;;;-151.14;100.00;62537.16;4287665;33;20125;-85
2022/09/22 00:14:13;;;;;;;;;;;13.50;73.60;;;-151.14;100.00;62537.16;4263812;33;20000;-85
2022/09/22 00:16:44;;;;;;;;;;;13.50;73.70;;;-151.14;100.00;62537.16;4263896;33;19992;-85
2022/09/22 00:19:15;;;;;;;;;;;13.50;73.60;;;-151.14;100.00;62537.16;4263367;33;20043;-86
2022/09/22 00:21:43;;;;;;;;;;;13.50;73.70;;;-151.14;100.00;62537.16;4302132;33;19902;-86
2022/09/22 00:24:14;;;;;;;;;;;13.50;73.70;;;-151.14;100.00;62537.16;4266529;33;20281;-85
2022/09/22 00:26:42;;;;;;;;;;;13.50;73.60;;;-151.14;100.00;62537.16;4263674;33;19902;-86
2022/09/22 00:29:11;;;;;;;;;;;13.50;73.70;;;-151.14;100.00;62537.16;4287477;33;20316;-86
2022/09/22 00:31:41;;;;;;;;;;;13.50;73.60;;;18.08;100.00;62537.16;4263396;33;19938;-86
2022/09/22 00:34:14;;;;;;;;;;;13.50;73.70;;;-151.14;100.00;62537.16;4263450;33;19902;-85
2022/09/22 00:36:42;;;;;;;;;;;13.50;73.60;;;-151.14;100.00;62537.16;4288432;33;19913;-86
2022/09/22 00:39:11;;;;;;;;;;;13.50;73.70;;;-151.14;100.00;62537.16;4263162;33;19902;-85
2022/09/22 00:41:43;;;;;;;;;;;13.50;73.70;;;-151.14;100.00;62537.16;4287498;33;19909;-85
2022/09/22 00:44:39;;;;;;;;;;;13.50;73.70;;;-151.14;100.00;62537.16;4263454;33;19901;-85
2022/09/22 00:47:34;;;;;;;;;;;13.50;73.80;;;-151.14;100.00;62537.16;4260867;33;19902;-85
2022/09/22 00:50:13;;;;;;;;;;;13.50;73.70;;;-151.14;100.00;62537.16;4288061;33;19902;-86
2022/09/22 00:52:45;;;;;;;;;;;13.50;73.70;;;-151.14;100.00;62537.16;4338703;32;19909;-85
2022/09/22 00:55:18;;;;;;;;;;;13.50;73.70;;;-151.14;100.00;62537.16;4265722;33;20017;-86
2022/09/22 00:57:48;;;;;;;;;;;13.50;73.90;;;-151.14;100.00;62537.16;4289684;33;19909;-85
2022/09/22 01:00:17;;;;;;;;;;;13.50;73.80;;;-151.14;100.00;62537.16;4289673;33;20000;-86
2022/09/22 01:02:46;;;;;;;;;;;13.50;73.80;;;12.58;100.00;62537.16;4289507;33;19985;-85
2022/09/22 01:05:15;;;;;;;;;;;13.50;73.90;;;-151.14;100.00;62537.16;4289402;33;19902;-85
2022/09/22 01:07:43;;;;;;;;;;;13.50;73.90;;;-151.14;100.00;62537.16;4289451;33;19902;-85
2022/09/22 01:10:12;;;;;;;;;;;13.50;73.80;;;-151.14;100.00;62537.16;4265319;33;19902;-85
2022/09/22 01:12:43;;;;;;;;;;;13.40;73.70;;;-151.14;100.00;62537.16;4265592;33;19902;-85
2022/09/22 01:15:24;;;;;;;;;;;13.50;73.80;;;-151.14;100.00;62537.16;4265404;33;20236;-85
2022/09/22 01:18:08;;;;;;;;;;;13.50;73.80;;;-151.14;100.00;62537.16;4265297;33;19901;-85
2022/09/22 01:21:20;;;;;;;;;;;13.50;73.70;;;-151.14;100.00;62537.16;4265424;33;20125;-86
2022/09/22 01:24:23;;;;;;;;;;;13.40;73.70;;;-151.14;100.00;62537.16;4260542;33;19902;-84
2022/09/22 01:27:40;;;;;;;;;;;13.40;73.70;;;-151.14;100.00;62537.16;4289569;33;20004;-85
2022/09/22 01:30:23;;;;;;;;;;;13.50;73.90;;;-151.14;100.00;62537.16;4289227;33;19901;-85
2022/09/22 01:33:16;;;;;;;;;;;13.50;73.90;;;-151.14;100.00;62537.16;4265565;33;19917;-85
2022/09/22 01:36:02;;;;;;;;;;;13.50;74.00;;;-151.14;100.00;62537.16;4265409;33;20229;-85
2022/09/22 01:38:34;;;;;;;;;;;13.40;73.80;;;-151.14;100.00;62537.16;4265268;33;19901;-84
2022/09/22 01:41:24;;;;;;;;;;;13.40;73.90;;;-151.14;100.00;62537.16;4265063;33;19902;-85
2022/09/22 01:43:56;;;;;;;;;;;13.50;74.00;;;-151.14;100.00;62537.16;4289365;33;19902;-85
2022/09/22 01:46:29;;;;;;;;;;;13.50;74.00;;;-151.14;100.00;62537.16;4265243;33;20217;-85
2022/09/22 01:48:59;;;;;;;;;;;13.40;73.90;;;-151.14;100.00;62537.16;4289977;33;19902;-85
2022/09/22 01:51:29;;;;;;;;;;;13.50;74.00;;;-151.14;100.00;62537.16;4288953;33;19901;-85
2022/09/22 01:54:02;;;;;;;;;;;13.40;73.90;;;-151.14;100.00;62537.16;4289255;33;20236;-85
2022/09/22 01:56:31;;;;;;;;;;;13.40;74.00;;;-151.14;100.00;62537.16;4289006;33;19902;-85
2022/09/22 01:59:01;;;;;;;;;;;13.40;73.90;;;-151.14;100.00;62537.16;4289970;33;19909;-85
2022/09/22 02:01:33;;;;;;;;;;;13.40;74.00;;;-151.14;100.00;62537.16;4289067;33;19909;-85
2022/09/22 02:04:04;;;;;;;;;;;13.40;73.90;;;-151.14;100.00;62537.16;4313227;33;19986;-85
2022/09/22 02:06:36;;;;;;;;;;;13.40;74.00;;;-151.14;100.00;62537.16;4264155;33;19988;-85
2022/09/22 02:09:06;;;;;;;;;;;13.40;74.00;;;12.53;100.00;62537.16;4264189;33;20000;-85
2022/09/22 02:11:35;;;;;;;;;;;13.40;73.90;;;-151.14;100.00;62537.16;4288750;33;19918;-85
2022/09/22 02:14:03;;;;;;;;;;;13.40;74.00;;;-151.14;100.00;62537.16;4265023;33;19997;-85
2022/09/22 02:16:33;;;;;;;;;;;13.40;74.00;;;-151.14;100.00;62537.16;4288841;33;19901;-85
2022/09/22 02:19:04;;;;;;;;;;;13.40;74.00;;;;;;4288662;33;19992;-85
2022/09/22 02:21:33;;;;;;;;;;;13.40;74.00;;;-151.14;100.00;62537.16;4289754;33;20006;-85
2022/09/22 02:24:02;;;;;;;;;;;13.40;74.00;;;-151.14;100.00;62537.16;4288752;33;19902;-85
2022/09/22 02:26:32;;;;;;;;;;;13.40;74.00;;;12.52;100.00;62537.16;4337525;32;19902;-85
2022/09/22 02:29:03;;;;;;;;;;;13.40;73.90;;;-151.14;100.00;62537.16;4288587;33;19902;-85
2022/09/22 02:31:35;;;;;;;;;;;13.40;74.00;;;-151.14;100.00;62537.16;4289481;33;19917;-85
2022/09/22 02:34:04;;;;;;;;;;;13.40;74.00;;;-151.14;100.00;62537.16;4264729;33;19901;-85
2022/09/22 02:36:46;;;;;;;;;;;13.40;74.00;;;-151.14;100.00;62537.16;4288569;33;19909;-85
2022/09/22 02:39:18;;;;;;;;;;;13.40;74.10;;;-151.14;100.00;62537.16;4288974;33;19902;-84
2022/09/22 02:42:09;;;;;;;;;;;13.40;74.10;;;-151.14;100.00;62537.16;4288575;33;19901;-84
2022/09/22 02:44:46;;;;;;;;;;;13.40;74.20;;;-151.14;100.00;62537.16;4288733;33;19902;-84
2022/09/22 02:47:19;;;;;;;;;;;13.40;74.20;;;12.50;100.00;62537.16;4289353;33;19902;-84
2022/09/22 02:49:48;;;;;;;;;;;13.40;74.10;;;-151.14;100.00;62537.16;4312525;33;19904;-84
2022/09/22 02:52:19;;;;;;;;;;;13.40;74.10;;;-151.14;100.00;62537.16;4288318;33;19901;-84
2022/09/22 02:54:48;;;;;;;;;;;13.40;74.20;;;-151.14;100.00;62537.16;4288553;33;20050;-84
2022/09/22 02:57:16;;;;;;;;;;;13.40;74.10;;;-151.14;100.00;62537.16;4264255;33;19909;-84
2022/09/22 02:59:45;;;;;;;;;;;13.40;74.20;;;-151.14;100.00;62537.16;4288156;33;19902;-84
2022/09/22 03:02:15;;;;;;;;;;;13.40;74.00;;;-151.14;100.00;62537.16;4288150;33;19985;-85
2022/09/22 03:04:43;;;;;;;;;;;13.40;74.20;;;-151.14;100.00;62537.16;4312351;33;19909;-86
2022/09/22 03:07:12;;;;;;;;;;;13.40;74.10;;;-151.14;100.00;62537.16;4288141;33;19906;-84
2022/09/22 03:09:40;;;;;;;;;;;13.40;74.20;;;-151.14;100.00;62537.16;4288199;33;19909;-84
2022/09/22 03:12:09;;;;;;;;;;;13.40;74.10;;;-151.14;100.00;62537.16;4287761;33;19959;-84
2022/09/22 03:14:37;;;;;;;;;;;13.40;74.20;;;-151.14;100.00;62537.16;4288317;33;19929;-86
2022/09/22 03:17:06;;;;;;;;;;;13.40;74.20;;;-151.14;100.00;62537.16;4287873;33;19902;-84
2022/09/22 03:19:36;;;;;;;;;;;13.40;74.20;;;-151.14;100.00;62537.16;4264190;33;19909;-85
2022/09/22 03:22:05;;;;;;;;;;;13.40;74.20;;;-151.14;100.00;62537.16;4289080;33;19902;-84
2022/09/22 03:24:33;;;;;;;;;;;13.40;74.20;;;-151.14;100.00;62537.16;4264240;33;19999;-84
2022/09/22 03:27:02;;;;;;;;;;;13.40;74.20;;;-151.14;100.00;62537.16;4288916;33;19902;-84
2022/09/22 03:29:30;;;;;;;;;;;13.40;74.20;;;18.08;100.00;62537.16;4264060;33;19901;-84
2022/09/22 03:31:59;;;;;;;;;;;13.40;74.20;;;12.52;100.00;62537.16;4263992;33;19909;-84
2022/09/22 03:34:27;;;;;;;;;;;13.40;74.20;;;-151.14;100.00;62537.16;4264223;33;20205;-84
2022/09/22 03:36:57;;;;;;;;;;;13.40;74.20;;;-151.14;100.00;62537.16;4263989;33;19902;-84
2022/09/22 03:39:26;;;;;;;;;;;13.40;74.20;;;-151.14;100.00;62537.16;4287750;33;19991;-84
2022/09/22 03:41:54;;;;;;;;;;;13.40;74.30;;;-151.14;100.00;62537.16;4264038;33;19965;-84
2022/09/22 03:44:25;;;;;;;;;;;13.40;74.30;;;-151.14;100.00;62537.16;4263914;33;19902;-85
2022/09/22 03:46:53;;;;;;;;;;;13.40;74.20;;;-151.14;100.00;62537.16;4287883;33;19902;-84
2022/09/22 03:49:22;;;;;;;;;;;13.40;74.30;;;-151.14;100.00;62537.16;4263826;33;19902;-84
2022/09/22 03:51:50;;;;;;;;;;;13.40;74.20;;;-151.14;100.00;62537.16;4263656;33;19909;-85
2022/09/22 03:54:20;;;;;;;;;;;13.40;74.30;;;-151.14;100.00;62537.16;4287777;33;20222;-84
2022/09/22 03:56:49;;;;;;;;;;;13.40;74.30;;;-151.14;100.00;62537.16;4263764;33;19902;-84
2022/09/22 03:59:17;;;;;;;;;;;13.40;74.30;;;-151.14;100.00;62537.16;4263811;33;19906;-84
2022/09/22 04:01:47;;;;;;;;;;;13.40;74.40;;;-151.14;100.00;62537.16;4312084;33;20004;-84
2022/09/22 04:04:16;;;;;;;;;;;13.40;74.40;;;-151.14;100.00;62537.16;4263506;33;19909;-84
2022/09/22 04:06:44;;;;;;;;;;;13.40;74.30;;;-151.14;100.00;62537.16;4288585;33;20004;-84
2022/09/22 04:09:16;;;;;;;;;;;13.40;74.40;;;-151.14;100.00;62537.16;4263585;33;20133;-84
2022/09/22 04:11:46;;;;;;;;;;;13.40;74.20;;;12.78;100.00;62537.16;4263430;33;19902;-84
2022/09/22 04:14:14;;;;;;;;;;;13.40;74.40;;;-151.14;100.00;62537.16;4287627;33;19909;-84
2022/09/22 04:16:43;;;;;;;;;;;13.40;74.30;;;-151.14;100.00;62537.16;4287449;33;19902;-85
2022/09/22 04:19:12;;;;;;;;;;;13.40;74.20;;;18.08;100.00;62537.16;4287386;33;19909;-85
2022/09/22 04:21:41;;;;;;;;;;;13.40;74.30;;;-151.14;100.00;62537.16;4287391;33;19902;-85
2022/09/22 04:24:09;;;;;;;;;;;13.40;74.20;;;-151.14;100.00;62537.16;4287714;33;19909;-84
2022/09/22 04:26:38;;;;;;;;;;;13.40;74.30;;;-151.14;100.00;62537.16;4290887;33;19909;-84
2022/09/22 04:29:08;;;;;;;;;;;13.40;74.30;;;-151.14;100.00;62537.16;4289830;33;19921;-84
2022/09/22 04:31:36;;;;;;;;;;;13.40;74.40;;;-151.14;100.00;62537.16;4289855;33;20125;-84
2022/09/22 04:34:05;;;;;;;;;;;13.40;74.40;;;-151.14;100.00;62537.16;4290001;33;19957;-84
2022/09/22 04:36:34;;;;;;;;;;;13.30;74.40;;;-151.14;100.00;62537.16;4265959;33;19982;-85
2022/09/22 04:39:03;;;;;;;;;;;13.40;74.50;;;-151.14;100.00;62537.16;4289834;33;19981;-84
2022/09/22 04:41:31;;;;;;;;;;;13.30;74.40;;;-151.14;100.00;62537.16;4265829;33;20004;-84
2022/09/22 04:44:00;;;;;;;;;;;13.40;74.40;;;-151.14;100.00;62537.16;4290082;33;19902;-84
2022/09/22 04:46:29;;;;;;;;;;;13.40;74.40;;;-151.14;100.00;62537.16;4289832;33;20237;-85
2022/09/22 04:48:58;;;;;;;;;;;13.30;74.40;;;-151.14;100.00;62537.16;4289636;33;19909;-85
2022/09/22 04:51:27;;;;;;;;;;;13.40;74.30;;;-151.14;100.00;62537.16;4289911;33;19902;-85
2022/09/22 04:53:55;;;;;;;;;;;13.30;74.40;;;-151.14;100.00;62537.16;4289583;33;20133;-84
2022/09/22 04:56:24;;;;;;;;;;;13.30;74.40;;;-151.14;100.00;62537.16;4265800;33;19902;-84
2022/09/22 04:58:53;;;;;;;;;;;13.40;74.50;;;-151.14;100.00;62537.16;4338268;32;19992;-85
2022/09/22 05:01:21;;;;;;;;;;;13.30;74.40;;;-151.14;100.00;62537.16;4265754;33;19987;-84
2022/09/22 05:03:52;;;;;;;;;;;13.30;74.50;;;-151.14;100.00;62537.16;4289566;33;20138;-84
2022/09/22 05:06:21;;;;;;;;;;;13.30;74.50;;;12.43;100.00;62537.16;4290753;33;20004;-84
2022/09/22 05:08:49;;;;;;;;;;;13.30;74.50;;;-151.14;100.00;62537.16;4265470;33;19909;-84
2022/09/22 05:11:20;;;;;;;;;;;13.30;74.50;;;-151.14;100.00;62537.16;4289622;33;20009;-84
2022/09/22 05:13:49;;;;;;;;;;;13.30;74.40;;;-151.14;100.00;62537.16;4290450;33;19901;-84
2022/09/22 05:16:18;;;;;;;;;;;13.30;74.50;;;-151.14;100.00;62537.16;4289408;33;19997;-84
2022/09/22 05:18:49;;;;;;;;;;;13.30;74.40;;;-151.14;100.00;62537.16;4289306;33;19981;-84
2022/09/22 05:21:18;;;;;;;;;;;13.40;74.40;;;-151.14;100.00;62537.16;4289455;33;20003;-84
2022/09/22 05:23:47;;;;;;;;;;;13.30;74.40;;;-151.14;100.00;62537.16;4265508;33;19984;-84
2022/09/22 05:26:16;;;;;;;;;;;13.30;75.20;;;-151.14;100.00;62537.16;4290599;33;20205;-85
2022/09/22 05:28:44;;;;;;;;;;;13.30;74.40;;;-151.14;100.00;62537.16;4290077;33;20133;-84
2022/09/22 05:31:13;;;;;;;;;;;13.30;74.40;;;-151.14;100.00;62537.16;4265453;33;20004;-84
2022/09/22 05:33:41;;;;;;;;;;;13.30;74.40;;;-151.14;100.00;62537.16;4265216;33;20029;-84
2022/09/22 05:36:10;;;;;;;;;;;13.30;74.40;;;-151.14;100.00;62537.16;4289386;33;19902;-84
2022/09/22 05:38:40;;;;;;;;;;;13.30;74.40;;;-151.14;100.00;62537.16;4264983;33;19902;-84
2022/09/22 05:41:08;;;;;;;;;;;13.30;74.40;;;-151.14;100.00;62537.16;4265427;33;20217;-84
2022/09/22 05:43:37;;;;;;;;;;;13.30;74.40;;;-151.14;100.00;62537.16;4265173;33;19903;-84
2022/09/22 05:46:05;;;;;;;;;;;13.40;74.40;;;-151.14;100.00;62537.16;4290186;33;19902;-84
2022/09/22 05:48:34;;;;;;;;;;;13.30;74.40;;;-151.14;100.00;62537.16;4288810;33;20221;-84
2022/09/22 05:51:03;;;;;;;;;;;13.30;74.40;;;-151.14;100.00;62537.16;4289176;33;19906;-85
2022/09/22 05:53:31;;;;;;;;;;;13.30;74.30;;;-151.14;100.00;62537.16;4288898;33;19953;-84
2022/09/22 05:56:02;;;;;;;;;;;13.30;74.30;;;-151.14;100.00;62537.16;4290042;33;20312;-84
2022/09/22 05:58:31;;;;;;;;;;;13.30;74.30;;;-151.14;100.00;62537.16;4264913;33;19909;-84
2022/09/22 06:00:59;;;;;;;;;;;13.30;74.40;;;-151.14;100.00;62537.16;4290240;33;19909;-84
2022/09/22 06:03:28;;;;;;;;;;;13.30;74.20;;;-151.14;100.00;62537.16;4288786;33;19947;-84
2022/09/22 06:05:56;;;;;;;;;;;13.40;74.30;;;-151.14;100.00;62537.16;4290111;33;19902;-84
2022/09/22 06:08:25;;;;;;;;;;;13.30;74.30;;;-151.14;100.00;62537.16;4264669;33;20134;-84
2022/09/22 06:10:53;;;;;;;;;;;13.40;74.40;;;-151.14;100.00;62537.16;4265091;33;19902;-84
2022/09/22 06:13:23;;;;;;;;;;;13.30;74.40;;;-151.14;100.00;62537.16;4264864;33;20130;-84
2022/09/22 06:15:51;;;;;;;;;;;13.30;74.40;;;-151.14;100.00;62537.16;4288910;33;19986;-84
2022/09/22 06:18:20;;;;;;;;;;;13.30;74.40;;;-151.14;100.00;62537.16;4288357;33;20449;-84
2022/09/22 06:20:48;;;;;;;;;;;13.30;74.40;;;-151.14;100.00;62537.16;4264776;33;19910;-84
2022/09/22 06:23:17;;;;;;;;;;;13.30;74.40;;;-151.14;100.00;62537.16;4312800;33;19901;-85
2022/09/22 06:25:46;;;;;;;;;;;13.30;74.40;;;-151.14;100.00;62537.16;4288158;33;20012;-84
2022/09/22 06:28:16;;;;;;;;;;;13.30;74.40;;;-151.14;100.00;62537.16;4312069;33;19908;-84
2022/09/22 06:30:48;;;;;;;;;;;13.30;74.40;;;-151.14;100.00;62537.16;4316993;33;19901;-84
2022/09/22 06:33:17;;;;;;;;;;;13.30;74.20;;;-151.14;100.00;62537.16;4316699;33;19902;-85
2022/09/22 06:35:45;;;;;;;;;;;13.30;74.20;;;187.61;100.00;62537.16;4316101;32;20323;-84
2022/09/22 06:38:14;;;;;;;;;;;13.30;74.10;;;-151.14;100.00;62537.16;4311598;33;19910;-85
2022/09/22 06:40:43;;;;;;;;;;;13.30;74.20;;;-151.14;100.00;62537.16;4288717;33;19985;-85
2022/09/22 06:43:19;;;;;;;;;;;13.30;74.20;;;-151.14;100.00;62537.16;4263951;33;19946;-84
2022/09/22 06:45:50;;;;;;;;;;;13.30;74.00;;;-151.14;100.00;62537.16;4311858;33;19902;-84
2022/09/22 06:48:21;;;;;;;;;;;13.30;74.00;;;-151.14;100.00;62537.16;4258526;33;19903;-85
2022/09/22 06:50:50;;;;;;;;;;;13.30;74.00;;;-151.14;100.00;62537.16;4235496;33;19970;-84
2022/09/22 06:53:19;;;;;;;;;;;13.30;74.00;;;-151.14;100.00;62537.16;4259990;33;20229;-84
2022/09/22 06:55:48;;;;;;;;;;;13.20;74.00;;;-151.14;100.00;62537.16;4260362;33;19902;-84
2022/09/22 06:58:17;;;;;;;;;;;13.20;74.00;;;-151.14;100.00;62537.16;4288596;33;19902;-84
2022/09/22 07:00:46;;;;;;;;;;;13.20;74.00;;;-151.14;100.00;62537.16;4311779;33;20071;-85
2022/09/22 07:03:19;;;;;;;;;;;13.20;74.70;;;-151.14;100.00;62537.16;4287665;33;19902;-84
2022/09/22 07:05:56;;;;;;;;;;;13.20;73.90;;;-151.14;100.00;62537.16;4287428;33;19902;-84
2022/09/22 07:08:25;;;;;;;;;;;13.20;74.00;;;-151.14;100.00;62537.16;4287505;33;20218;-84
2022/09/22 07:10:55;;;;;;;;;;;13.20;74.00;;;12.78;100.00;62537.16;4263369;33;19985;-84
2022/09/22 07:13:24;;;;;;;;;;;13.20;73.90;;;-151.14;100.00;62537.16;4311617;33;19901;-84
2022/09/22 07:15:54;;;;;;;;;;;13.20;73.80;;;-151.14;100.00;62537.16;4287301;33;20602;-84
2022/09/22 07:18:24;;;;;;;;;;;13.20;73.90;;;-151.14;100.00;62537.16;4287328;33;19902;-84
2022/09/22 07:20:53;;;;;;;;;;;13.20;74.00;;;-151.14;100.00;62537.16;4287421;33;20243;-84
2022/09/22 07:23:21;;;;;;;;;;;13.20;74.20;;;-151.14;100.00;62537.16;4263429;33;20138;-84
2022/09/22 07:25:55;;;;;;;;;;;13.20;74.30;;;18.08;100.00;62537.16;4288428;33;19902;-84
2022/09/22 07:28:27;;;;;;;;;;;13.20;74.40;;;-151.14;100.00;62537.16;4263098;33;19909;-85
2022/09/22 07:30:57;;;;;;;;;;;13.20;74.30;;;-151.14;100.00;62537.16;4287437;33;20236;-84
2022/09/22 07:33:27;;;;;;;;;;;13.20;74.20;;;-151.14;100.00;62537.16;4263411;33;20241;-85
2022/09/22 07:36:04;;;;;;;;;;;13.20;74.20;;;-151.14;100.00;62537.16;4287193;33;20037;-85
2022/09/22 07:38:35;;;;;;;;;;;13.30;74.20;;;-151.14;100.00;62537.16;4288134;33;19916;-84
2022/09/22 07:41:05;;;;;;;;;;;13.30;74.30;;;-151.14;100.00;62537.16;4286080;33;19902;-84
2022/09/22 07:43:34;;;;;;;;;;;13.30;74.50;;;-151.14;100.00;62537.16;4286994;33;19955;-84
2022/09/22 07:46:03;;;;;;;;;;;13.30;74.20;;;-151.14;100.00;62537.16;4287068;33;19909;-84
2022/09/22 07:48:36;;;;;;;;;;;13.30;74.10;;;-151.14;100.00;62537.16;4262917;33;19909;-84
2022/09/22 07:51:07;;;;;;;;;;;13.30;74.00;;;-151.14;100.00;62537.16;4263187;33;19906;-84
2022/09/22 07:53:36;;;;;;;;;;;13.30;74.10;;;-151.14;100.00;62537.16;4263193;33;20182;-84
2022/09/22 07:56:06;;;;;;;;;;;13.30;73.90;;;-151.14;100.00;62537.16;4263006;33;19909;-84
2022/09/22 07:58:34;;;;;;;;;;;13.30;74.00;;;-151.14;100.00;62537.16;4335369;32;19902;-84
2022/09/22 08:01:07;;;;;;;;;;;13.30;74.10;;;-151.14;100.00;62537.16;4289173;33;19910;-84
2022/09/22 08:03:38;;;;;;;;;;;13.30;74.20;;;-151.14;100.00;62537.16;4289302;33;19901;-83
2022/09/22 08:06:11;;;;;;;;;;;13.30;74.30;;;-151.14;100.00;62537.16;4289403;33;19901;-84
2022/09/22 08:08:41;;;;;;;;;;;13.30;74.10;;;-151.14;100.00;62537.16;4290233;33;19912;-84
2022/09/22 08:11:12;;;;;;;;;;;13.30;74.10;;;-151.14;100.00;62537.16;4289361;33;19910;-84
2022/09/22 08:13:41;;;;;;;;;;;13.30;74.20;;;-151.14;100.00;62537.16;4284845;33;19910;-84
2022/09/22 08:16:10;;;;;;;;;;;13.30;74.00;;;12.36;100.00;62537.16;4261354;33;19910;-84
2022/09/22 08:18:40;;;;;;;;;;;13.30;74.20;;;-151.14;100.00;62537.16;4260307;33;19902;-83
2022/09/22 08:21:08;;;;;;;;;;;13.30;74.00;;;;;;4262069;33;20210;-83
2022/09/22 08:23:37;;;;;;;;;;;13.30;73.60;;;-151.14;100.00;62537.16;4289320;33;19924;-83
2022/09/22 08:26:08;;;;;;;;;;;13.30;73.80;;;-151.14;100.00;62537.16;4290224;33;19910;-83
2022/09/22 08:28:36;;;;;;;;;;;13.30;73.90;;;-151.14;100.00;62537.16;4290137;33;19902;-84
2022/09/22 08:31:10;;;;;;;;;;;13.30;74.00;;;-151.14;100.00;62537.16;4289258;33;19902;-83
2022/09/22 08:33:41;;;;;;;;;;;13.30;73.90;;;-151.14;100.00;62537.16;4290178;33;19902;-83
2022/09/22 08:36:10;;;;;;;;;;;13.30;74.00;;;-151.14;100.00;62537.16;4290026;33;19917;-83
2022/09/22 08:38:39;;;;;;;;;;;13.30;73.90;;;-151.14;100.00;62537.16;4288917;33;20228;-83
2022/09/22 08:41:17;;;;;;;;;;;13.30;73.80;;;-151.14;100.00;62537.16;4290123;33;19905;-84
2022/09/22 08:43:51;;;;;;;;;;;13.30;73.60;;;-151.14;100.00;62537.16;4289239;33;19909;-83
2022/09/22 08:46:20;;;;;;;;;;;13.30;73.70;;;-151.14;100.00;62537.16;4265133;33;20000;-83
2022/09/22 08:51:54;;;;;;;;;;;13.30;73.60;;;-151.14;100.00;62537.16;4290241;33;19928;-84
2022/09/22 08:54:26;;;;;;;;;;;13.30;73.40;;;-151.14;100.00;62537.16;4337922;32;19902;-84
2022/09/22 08:57:09;;;;;;;;;;;13.30;73.40;;;-151.14;100.00;62537.16;4288749;33;20031;-84
2022/09/22 08:59:42;;;;;;;;;;;13.30;73.40;;;-151.14;100.00;62537.16;4289069;33;19924;-85
2022/09/22 09:02:42;;;;;;;;;;;13.30;73.40;;;-151.14;100.00;62537.16;4301066;33;19958;-83
2022/09/22 09:05:53;;;;;;;;;;;13.30;73.40;;;-151.14;100.00;62537.16;4307515;33;19910;-84
2022/09/22 09:08:45;;;;;;;;;;;13.30;73.30;;;-151.14;100.00;62537.16;4308054;33;19902;-83
2022/09/22 09:11:23;;;;;;;;;;;13.30;73.20;;;-151.14;100.00;62537.16;4259710;33;19902;-83
2022/09/22 09:14:07;;;;;;;;;;;13.30;73.00;;;-151.14;100.00;62537.16;4260177;33;19902;-83
2022/09/22 09:16:44;;;;;;;;;;;13.30;73.20;;;-151.14;100.00;62537.16;4283764;33;20080;-83
2022/09/22 09:19:17;;;;;;;;;;;13.30;73.30;;;-151.14;100.00;62537.16;4236263;33;20017;-84
2022/09/22 09:21:53;;;;;;;;;;;13.30;73.30;;;-151.14;100.00;62537.16;4283760;33;19952;-83
2022/09/22 09:24:29;;;;;;;;;;;13.30;73.30;;;-151.14;100.00;62537.16;4259746;33;19978;-84
2022/09/22 09:27:07;;;;;;;;;;;13.40;73.40;;;-151.14;100.00;62537.16;4259925;33;19902;-83
2022/09/22 09:29:40;;;;;;;;;;;13.40;73.60;;;-151.14;100.00;62537.16;4259644;33;20214;-83
2022/09/22 09:32:15;;;;;;;;;;;13.40;73.70;;;-151.14;100.00;62537.16;4260872;33;19929;-84
2022/09/22 09:34:45;;;;;;;;;;;13.40;73.60;;;-151.14;100.00;62537.16;4236062;33;19903;-84
2022/09/22 09:37:16;;;;;;;;;;;13.40;73.40;;;-151.14;100.00;62537.16;4236118;33;19917;-83
2022/09/22 09:39:44;;;;;;;;;;;13.30;73.50;;;-151.14;100.00;62537.16;4259163;33;20222;-83
2022/09/22 09:42:21;;;;;;;;;;;13.30;73.80;;;-151.14;100.00;62537.16;4259589;33;20246;-83
2022/09/22 09:44:52;;;;;;;;;;;13.30;74.00;;;-151.14;100.00;62537.16;4259649;33;19992;-84
2022/09/22 09:47:33;;;;;;;;;;;13.30;74.10;;;12.33;100.00;62537.16;4244682;33;19909;-83
2022/09/22 09:50:02;;;;;;;;;;;13.30;74.20;;;-151.14;100.00;62537.16;4315924;33;19901;-84
2022/09/22 09:52:36;;;;;;;;;;;13.30;73.90;;;-151.14;100.00;62537.16;4317096;33;19902;-83
2022/09/22 09:55:16;;;;;;;;;;;13.30;73.70;;;-151.14;100.00;62537.16;4307901;33;19917;-84
2022/09/22 09:58:01;;;;;;;;;;;13.20;73.40;;;-151.14;100.00;62537.16;4288078;33;19937;-83
2022/09/22 10:00:31;;;;;;;;;;;13.20;73.50;;;-151.14;100.00;62537.16;4288008;33;19998;-83
2022/09/22 10:03:06;;;;;;;;;;;13.20;73.70;;;-151.14;100.00;62537.16;4287723;33;19975;-83
2022/09/22 10:05:36;;;;;;;;;;;13.20;73.70;;;-151.14;100.00;62537.16;4288091;33;19973;-83
2022/09/22 10:08:16;;;;;;;;;;;13.20;73.70;;;-151.14;100.00;62537.16;4259200;33;19909;-84
2022/09/22 10:10:45;;;;;;;;;;;13.20;73.90;;;-151.14;100.00;62537.16;4307465;33;19903;-83
2022/09/22 10:13:29;;;;;;;;;;;13.30;74.00;;;-151.14;100.00;62537.16;4235608;33;19917;-84
2022/09/22 10:16:21;;;;;;;;;;;13.30;74.00;;;-151.14;100.00;62537.16;4282923;33;19909;-84
2022/09/22 10:18:51;;;;;;;;;;;13.30;73.90;;;-151.14;100.00;62537.16;4258191;33;20280;-84
2022/09/22 10:21:21;;;;;;;;;;;13.30;74.00;;;-151.14;100.00;62537.16;4287152;33;20214;-83
2022/09/22 10:23:51;;;;;;;;;;;13.30;73.90;;;-151.14;100.00;62537.16;4286285;33;20225;-83
2022/09/22 10:26:25;;;;;;;;;;;13.30;73.90;;;-151.14;100.00;62537.16;4235715;33;19981;-83
2022/09/22 10:29:17;;;;;;;;;;;13.40;73.90;;;-151.14;100.00;62537.16;4258848;33;20006;-84
2022/09/22 10:32:06;;;;;;;;;;;13.40;74.00;;;-151.14;100.00;62537.16;4283022;33;20015;-83
2022/09/22 10:34:36;;;;;;;;;;;13.40;74.00;;;-151.14;100.00;62537.16;4259939;33;19913;-84
2022/09/22 10:37:09;;;;;;;;;;;13.40;74.00;;;-151.14;100.00;62537.16;4307091;33;20227;-83
2022/09/22 10:39:44;;;;;;;;;;;13.40;74.20;;;-151.14;100.00;62537.16;4282469;33;20002;-84
2022/09/22 10:42:26;;;;;;;;;;;13.40;74.40;;;-151.14;100.00;62537.16;4259063;33;20017;-83
2022/09/22 10:45:03;;;;;;;;;;;13.40;74.30;;;-151.14;100.00;62537.16;4258871;33;19902;-83
2022/09/22 10:47:39;;;;;;;;;;;13.40;74.20;;;-151.14;100.00;62537.16;4282725;33;19910;-84
2022/09/22 10:51:00;;;;;;;;;;;13.40;74.30;;;-151.14;100.00;62537.16;4235439;33;20226;-83
2022/09/22 10:53:55;;;;;;;;;;;13.40;74.20;;;-151.14;100.00;62537.16;4259061;33;20408;-84
2022/09/22 10:56:30;;;;;;;;;;;13.40;74.20;;;-151.14;100.00;62537.16;4258610;33;20263;-84
2022/09/22 10:59:48;;;;;;;;;;;13.40;74.30;;;-151.14;100.00;62537.16;4258674;33;19902;-84
2022/09/22 11:03:13;;;;;;;;;;;13.40;74.40;;;-151.14;100.00;62537.16;4206989;33;19909;-84
2022/09/22 11:14:35;;;;;;;;;;;13.50;75.50;;;-151.14;100.00;62537.16;4286976;33;22969;-84
2022/09/22 11:17:16;;;;;;;;;;;13.50;74.80;;;-151.14;100.00;62537.16;4287078;33;19980;-83
2022/09/22 11:20:09;;;;;;;;;;;13.50;74.90;;;-151.14;100.00;62537.16;4263273;33;19909;-84
2022/09/22 11:22:53;;;;;;;;;;;13.50;75.00;;;-151.14;100.00;62537.16;4306538;33;19917;-84
2022/09/22 11:25:38;;;;;;;;;;;13.40;75.00;;;-151.14;100.00;62537.16;4279353;33;19925;-83
2022/09/22 11:28:23;;;;;;;;;;;13.40;75.00;;;-151.14;100.00;62537.16;4286684;33;19902;-83
2022/09/22 11:30:53;;;;;;;;;;;13.40;75.10;;;-151.14;100.00;62537.16;4269043;33;19924;-83
2022/09/22 11:33:44;;;;;;;;;;;13.40;75.00;;;-151.14;100.00;62537.16;4287744;33;19902;-83
2022/09/22 11:36:21;;;;;;;;;;;13.40;75.20;;;-151.14;100.00;62537.16;4268135;33;19902;-83